createdAt,value
2018-09-17T00:00:19.824Z,7.50
2018-09-17T00:02:50.684Z,7.30
2018-09-17T00:05:21.511Z,7.40
2018-09-17T00:07:52.284Z,7.13
2018-09-17T00:10:23.074Z,7.93
2018-09-17T00:12:53.984Z,8.67
2018-09-17T00:15:24.743Z,7.13
2018-09-17T00:17:55.492Z,7.00
2018-09-17T00:20:26.323Z,7.93
2018-09-17T00:22:57.092Z,7.80
2018-09-17T00:25:27.872Z,7.83
2018-09-17T00:27:58.824Z,7.10
2018-09-17T00:30:29.623Z,7.20
2018-09-17T00:33:00.324Z,7.47
2018-09-17T00:35:31.031Z,8.13
2018-09-17T00:38:01.747Z,8.00
2018-09-17T00:40:32.532Z,8.33
2018-09-17T00:43:03.248Z,8.70
2018-09-17T00:45:33.988Z,8.80
2018-09-17T00:48:04.640Z,8.73
2018-09-17T00:50:35.420Z,8.83
2018-09-17T00:53:06.120Z,8.33
2018-09-17T00:55:36.827Z,8.03
2018-09-17T00:58:07.788Z,8.77
2018-09-17T01:00:38.560Z,7.80
2018-09-17T01:03:09.220Z,8.10
2018-09-17T01:05:39.967Z,8.43
2018-09-17T01:08:10.628Z,9.00
2018-09-17T01:10:41.408Z,8.67
2018-09-17T01:13:12.088Z,9.60
2018-09-17T01:15:43.088Z,9.33
2018-09-17T01:18:13.720Z,9.90
2018-09-17T01:20:44.473Z,11.00
2018-09-17T01:23:15.150Z,10.57
2018-09-17T01:25:45.896Z,10.67
2018-09-17T01:28:16.566Z,11.20
2018-09-17T01:30:47.312Z,9.97
2018-09-17T01:33:18.029Z,9.70
2018-09-17T01:35:48.787Z,10.97
2018-09-17T01:38:19.852Z,10.67
2018-09-17T01:40:50.615Z,10.03
2018-09-17T01:43:21.367Z,9.73
2018-09-17T01:45:52.187Z,9.07
2018-09-17T01:48:22.908Z,8.70
2018-09-17T01:50:53.627Z,9.03
2018-09-17T01:53:24.348Z,8.97
2018-09-17T01:55:55.028Z,8.83
2018-09-17T01:58:25.699Z,8.63
2018-09-17T02:00:56.409Z,8.53
2018-09-17T02:03:27.147Z,9.53
2018-09-17T02:05:57.887Z,8.73
2018-09-17T02:08:28.502Z,9.40
2018-09-17T02:10:59.189Z,9.27
2018-09-17T02:13:30.271Z,10.23
2018-09-17T02:16:00.987Z,9.10
2018-09-17T02:18:31.671Z,9.73
2018-09-17T02:21:02.408Z,9.53
2018-09-17T02:23:33.068Z,8.97
2018-09-17T02:26:03.739Z,8.77
2018-09-17T02:28:34.463Z,8.50
2018-09-17T02:31:05.260Z,8.40
2018-09-17T02:33:36.093Z,8.63
2018-09-17T02:36:06.964Z,9.47
2018-09-17T02:38:37.757Z,9.50
2018-09-17T02:41:08.570Z,10.40
2018-09-17T02:43:39.348Z,9.93
2018-09-17T02:46:10.149Z,9.10
2018-09-17T02:48:40.888Z,9.03
2018-09-17T02:51:11.668Z,8.90
2018-09-17T02:53:42.358Z,9.87
2018-09-17T02:56:13.108Z,9.57
2018-09-17T02:58:44.149Z,8.50
2018-09-17T03:01:14.899Z,9.53
2018-09-17T03:03:45.664Z,9.17
2018-09-17T03:06:16.451Z,8.93
2018-09-17T03:08:47.308Z,9.23
2018-09-17T03:11:18.284Z,8.63
2018-09-17T03:13:49.048Z,8.70
2018-09-17T03:16:19.819Z,8.97
2018-09-17T03:18:55.552Z,9.03
2018-09-17T03:21:26.419Z,9.00
2018-09-17T03:23:57.171Z,8.60
2018-09-17T03:26:27.971Z,10.00
2018-09-17T03:28:58.662Z,9.00
2018-09-17T03:31:29.387Z,9.33
2018-09-17T03:34:00.030Z,9.67
2018-09-17T03:36:30.829Z,10.77
2018-09-17T03:39:01.628Z,11.00
2018-09-17T03:41:32.359Z,10.00
2018-09-17T03:44:03.040Z,10.00
2018-09-17T03:46:33.817Z,10.83
2018-09-17T03:49:04.508Z,9.13
2018-09-17T03:51:35.268Z,9.03
2018-09-17T03:54:06.267Z,9.30
2018-09-17T03:56:36.963Z,9.20
2018-09-17T03:59:07.627Z,8.93
2018-09-17T04:01:38.349Z,9.27
2018-09-17T04:04:09.110Z,9.67
2018-09-17T04:06:39.803Z,9.47
2018-09-17T04:09:10.548Z,9.73
2018-09-17T04:11:41.288Z,10.43
2018-09-17T04:14:11.987Z,10.43
2018-09-17T04:16:43.007Z,9.97
2018-09-17T04:19:13.794Z,9.43
2018-09-17T04:21:44.470Z,10.03
2018-09-17T04:24:15.200Z,9.23
2018-09-17T04:26:45.967Z,11.00
2018-09-17T04:29:16.808Z,9.63
2018-09-17T04:31:47.540Z,10.80
2018-09-17T04:34:18.321Z,10.53
2018-09-17T04:36:49.128Z,11.03
2018-09-17T04:39:22.125Z,10.43
2018-09-17T04:41:52.884Z,11.63
2018-09-17T04:44:23.703Z,10.97
2018-09-17T04:46:54.498Z,11.87
2018-09-17T04:49:25.351Z,11.63
2018-09-17T04:51:56.195Z,10.97
2018-09-17T04:54:27.084Z,11.57
2018-09-17T04:56:57.988Z,10.67
2018-09-17T04:59:28.926Z,11.13
2018-09-17T05:01:59.819Z,11.30
2018-09-17T05:04:30.545Z,11.77
2018-09-17T05:07:01.396Z,11.33
2018-09-17T05:09:32.068Z,11.27
2018-09-17T05:12:02.826Z,11.70
2018-09-17T05:14:33.593Z,12.13
2018-09-17T05:17:04.385Z,11.83
2018-09-17T05:19:35.486Z,12.40
2018-09-17T05:22:06.248Z,12.47
2018-09-17T05:24:37.020Z,13.80
2018-09-17T05:27:07.828Z,12.70
2018-09-17T05:29:38.768Z,12.70
2018-09-17T05:32:09.519Z,12.67
2018-09-17T05:34:40.228Z,12.77
2018-09-17T05:37:11.064Z,11.30
2018-09-17T05:39:41.791Z,11.50
2018-09-17T05:42:12.527Z,12.07
2018-09-17T05:44:43.211Z,11.67
2018-09-17T05:47:13.983Z,11.00
2018-09-17T05:49:44.848Z,10.97
2018-09-17T05:52:15.700Z,11.10
2018-09-17T05:54:46.513Z,12.10
2018-09-17T05:57:17.267Z,11.83
2018-09-17T05:59:48.260Z,12.00
2018-09-17T06:02:19.019Z,13.30
2018-09-17T06:04:53.114Z,13.53
2018-09-17T06:07:25.206Z,13.43
2018-09-17T06:09:58.101Z,13.27
2018-09-17T06:12:38.860Z,12.53
2018-09-17T06:15:09.549Z,12.53
2018-09-17T06:17:40.442Z,12.23
2018-09-17T06:20:11.151Z,11.40
2018-09-17T06:22:41.928Z,11.57
2018-09-17T06:25:12.627Z,11.60
2018-09-17T06:27:43.340Z,12.07
2018-09-17T06:30:14.040Z,12.03
2018-09-17T06:32:45.040Z,12.80
2018-09-17T06:35:15.854Z,12.70
2018-09-17T06:37:46.668Z,11.80
2018-09-17T06:40:17.455Z,11.43
2018-09-17T06:42:48.313Z,11.90
2018-09-17T06:45:19.016Z,11.27
2018-09-17T06:47:49.745Z,13.20
2018-09-17T06:50:20.573Z,15.17
2018-09-17T06:52:51.408Z,15.70
2018-09-17T06:55:22.209Z,14.03
2018-09-17T06:57:52.988Z,13.60
2018-09-17T07:00:23.807Z,12.13
2018-09-17T07:02:54.700Z,11.40
2018-09-17T07:05:25.411Z,11.80
2018-09-17T07:07:56.271Z,12.33
2018-09-17T07:10:27.035Z,11.87
2018-09-17T07:12:57.892Z,12.43
2018-09-17T07:15:28.780Z,12.10
2018-09-17T07:17:59.567Z,11.77
2018-09-17T07:20:30.370Z,12.07
2018-09-17T07:23:01.192Z,12.40
2018-09-17T07:25:32.012Z,12.90
2018-09-17T07:28:02.897Z,12.03
2018-09-17T07:30:33.580Z,12.37
2018-09-17T07:33:04.324Z,12.37
2018-09-17T07:35:35.111Z,12.57
2018-09-17T07:38:05.910Z,12.97
2018-09-17T07:40:36.566Z,12.83
2018-09-17T07:43:08.310Z,13.10
2018-09-17T07:45:39.040Z,13.53
2018-09-17T07:48:09.791Z,13.40
2018-09-17T07:50:40.600Z,13.63
2018-09-17T07:53:11.505Z,13.80
2018-09-17T07:55:42.180Z,13.17
2018-09-17T07:58:12.908Z,14.00
2018-09-17T08:00:43.622Z,12.73
2018-09-17T08:03:14.404Z,13.17
2018-09-17T08:05:45.379Z,13.73
2018-09-17T08:08:16.147Z,14.17
2018-09-17T08:10:46.868Z,13.70
2018-09-17T08:13:17.679Z,13.80
2018-09-17T08:15:48.440Z,14.80
2018-09-17T08:18:19.252Z,13.47
2018-09-17T08:20:50.020Z,13.30
2018-09-17T08:23:20.771Z,13.13
2018-09-17T08:25:51.548Z,12.93
2018-09-17T08:28:22.331Z,14.07
2018-09-17T08:30:53.039Z,12.97
2018-09-17T08:33:23.918Z,13.13
2018-09-17T08:35:54.672Z,13.40
2018-09-17T08:38:25.580Z,13.13
2018-09-17T08:40:56.313Z,12.43
2018-09-17T08:43:27.041Z,13.00
2018-09-17T08:45:57.708Z,13.47
2018-09-17T08:48:28.587Z,11.67
2018-09-17T08:50:59.351Z,12.23
2018-09-17T08:53:30.089Z,13.13
2018-09-17T08:56:05.986Z,12.10
2018-09-17T08:58:41.768Z,11.23
2018-09-17T09:01:17.646Z,10.37
2018-09-17T09:03:53.522Z,10.77
2018-09-17T09:06:29.359Z,10.23
2018-09-17T09:09:00.079Z,10.23
2018-09-17T09:12:36.320Z,9.53
2018-09-17T09:15:12.428Z,10.73
2018-09-17T09:17:43.429Z,9.73
2018-09-17T09:20:14.268Z,9.60
2018-09-17T09:22:45.140Z,9.43
2018-09-17T09:25:15.972Z,8.83
2018-09-17T09:27:46.696Z,9.17
2018-09-17T09:30:17.610Z,8.40
2018-09-17T09:32:48.632Z,8.23
2018-09-17T09:35:19.543Z,8.47
2018-09-17T09:37:50.532Z,7.57
2018-09-17T09:40:21.340Z,7.83
2018-09-17T09:42:52.100Z,7.67
2018-09-17T09:45:22.869Z,7.90
2018-09-17T09:47:53.620Z,6.97
2018-09-17T09:50:24.448Z,7.67
2018-09-17T09:52:55.341Z,7.60
2018-09-17T09:55:26.308Z,7.83
2018-09-17T09:57:57.016Z,7.30
2018-09-17T10:00:33.149Z,7.37
2018-09-17T10:04:09.516Z,7.33
2018-09-17T10:06:40.773Z,6.97
2018-09-17T10:09:16.642Z,6.87
2018-09-17T10:11:52.572Z,6.60
2018-09-17T10:14:28.533Z,6.37
2018-09-17T10:17:04.399Z,6.77
2018-09-17T10:19:35.307Z,6.40
2018-09-17T10:22:06.234Z,6.67
2018-09-17T10:24:37.706Z,7.23
2018-09-17T10:27:08.670Z,6.80
2018-09-17T10:29:39.630Z,6.40
2018-09-17T10:32:11.444Z,7.03
2018-09-17T10:34:42.287Z,7.50
2018-09-17T10:37:13.254Z,7.40
2018-09-17T10:39:44.109Z,7.10
2018-09-17T10:42:15.060Z,7.50
2018-09-17T10:44:45.923Z,7.50
2018-09-17T10:47:17.284Z,6.73
2018-09-17T10:49:48.188Z,7.27
2018-09-17T10:52:19.193Z,7.40
2018-09-17T10:54:50.044Z,7.50
2018-09-17T10:57:21.206Z,7.20
2018-09-17T10:59:52.059Z,7.40
2018-09-17T11:02:22.891Z,7.77
2018-09-17T11:04:53.992Z,7.60
2018-09-17T11:07:25.224Z,8.30
2018-09-17T11:09:56.765Z,7.53
2018-09-17T11:12:27.643Z,8.10
2018-09-17T11:14:58.472Z,7.70
2018-09-17T11:17:29.345Z,7.97
2018-09-17T11:20:00.090Z,8.10
2018-09-17T11:22:30.951Z,7.60
2018-09-17T11:25:01.882Z,6.97
2018-09-17T11:27:32.686Z,7.10
2018-09-17T11:30:03.868Z,7.23
2018-09-17T11:32:35.572Z,7.10
2018-09-17T11:35:06.500Z,6.50
2018-09-17T11:37:37.400Z,5.97
2018-09-17T11:40:08.871Z,5.33
2018-09-17T11:42:39.788Z,6.67
2018-09-17T11:45:10.715Z,6.03
2018-09-17T11:47:41.516Z,5.33
2018-09-17T11:50:12.460Z,5.33
2018-09-17T11:52:43.339Z,5.33
2018-09-17T11:55:14.220Z,4.70
2018-09-17T11:57:45.152Z,4.43
2018-09-17T12:00:21.320Z,4.67
2018-09-17T12:03:55.964Z,4.60
2018-09-17T12:06:31.948Z,4.97
2018-09-17T12:09:02.860Z,4.70
2018-09-17T12:11:33.675Z,4.73
2018-09-17T12:14:04.570Z,5.00
2018-09-17T12:16:35.341Z,4.50
2018-09-17T12:19:06.328Z,4.17
2018-09-17T12:21:37.079Z,4.80
2018-09-17T12:24:08.077Z,4.17
2018-09-17T12:26:39.224Z,3.80
2018-09-17T12:29:10.104Z,4.53
2018-09-17T12:31:40.809Z,4.63
2018-09-17T12:34:11.609Z,4.80
2018-09-17T12:36:42.391Z,5.20
2018-09-17T12:39:13.873Z,4.70
2018-09-17T12:41:44.599Z,4.87
2018-09-17T12:44:16.411Z,4.77
2018-09-17T12:46:47.351Z,4.90
2018-09-17T12:49:18.210Z,4.50
2018-09-17T12:51:49.012Z,4.97
2018-09-17T12:54:20.064Z,5.03
2018-09-17T12:56:50.922Z,5.40
2018-09-17T12:59:21.751Z,5.93
2018-09-17T13:01:52.552Z,5.70
2018-09-17T13:04:23.457Z,5.50
2018-09-17T13:06:54.336Z,5.53
2018-09-17T13:09:25.290Z,5.43
2018-09-17T13:11:56.113Z,5.30
2018-09-17T13:14:26.972Z,5.30
2018-09-17T13:16:57.737Z,5.20
2018-09-17T13:19:28.691Z,5.10
2018-09-17T13:21:59.544Z,4.50
2018-09-17T13:24:30.374Z,4.17
2018-09-17T13:27:01.171Z,4.43
2018-09-17T13:29:32.120Z,3.90
2018-09-17T13:32:03.050Z,4.13
2018-09-17T13:34:33.891Z,5.07
2018-09-17T13:37:04.998Z,5.47
2018-09-17T13:39:36.331Z,5.03
2018-09-17T13:42:07.319Z,4.83
2018-09-17T13:44:38.461Z,5.03
2018-09-17T13:47:09.340Z,4.67
2018-09-17T13:49:40.183Z,4.87
2018-09-17T13:52:11.056Z,5.30
2018-09-17T13:54:41.930Z,4.57
2018-09-17T13:57:12.944Z,4.60
2018-09-17T13:59:43.894Z,5.17
2018-09-17T14:02:14.679Z,4.87
2018-09-17T14:04:45.630Z,5.00
2018-09-17T14:07:16.455Z,5.53
2018-09-17T14:09:47.282Z,5.33
2018-09-17T14:12:18.169Z,5.33
2018-09-17T14:14:49.044Z,5.10
2018-09-17T14:17:20.013Z,5.07
2018-09-17T14:19:50.886Z,5.13
2018-09-17T14:22:21.728Z,5.03
2018-09-17T14:24:52.678Z,4.93
2018-09-17T14:27:23.743Z,5.27
2018-09-17T14:29:54.820Z,5.30
2018-09-17T14:32:30.855Z,5.10
2018-09-17T14:35:01.661Z,4.57
2018-09-17T14:37:32.596Z,4.57
2018-09-17T14:40:03.950Z,4.20
2018-09-17T14:42:34.887Z,4.37
2018-09-17T14:45:05.953Z,4.77
2018-09-17T14:47:36.988Z,4.73
2018-09-17T14:50:07.835Z,5.13
2018-09-17T14:52:38.895Z,5.00
2018-09-17T14:55:10.458Z,5.07
2018-09-17T14:57:41.519Z,5.33
2018-09-17T15:00:12.421Z,5.87
2018-09-17T15:02:43.435Z,5.17
2018-09-17T15:05:14.411Z,5.50
2018-09-17T15:07:45.238Z,5.63
2018-09-17T15:10:16.191Z,5.70
2018-09-17T15:12:47.124Z,5.90
2018-09-17T15:15:18.037Z,6.13
2018-09-17T15:17:48.818Z,5.53
2018-09-17T15:20:20.020Z,5.57
2018-09-17T15:22:50.863Z,5.70
2018-09-17T15:25:22.876Z,5.83
2018-09-17T15:27:53.687Z,5.47
2018-09-17T15:30:24.663Z,5.83
2018-09-17T15:32:56.374Z,5.40
2018-09-17T15:35:27.258Z,5.70
2018-09-17T15:37:58.163Z,5.53
2018-09-17T15:40:30.126Z,6.20
2018-09-17T15:43:01.072Z,5.47
2018-09-17T15:45:32.308Z,5.90
2018-09-17T15:48:03.176Z,6.03
2018-09-17T15:50:34.135Z,6.17
2018-09-17T15:53:05.052Z,5.50
2018-09-17T15:55:35.950Z,5.47
2018-09-17T15:58:07.902Z,5.17
2018-09-17T16:00:38.841Z,5.60
2018-09-17T16:03:09.723Z,5.53
2018-09-17T16:05:40.642Z,5.50
2018-09-17T16:08:11.437Z,5.70
2018-09-17T16:10:42.566Z,5.50
2018-09-17T16:13:13.391Z,5.47
2018-09-17T16:15:45.184Z,5.20
2018-09-17T16:18:16.300Z,5.67
2018-09-17T16:20:53.712Z,5.80
2018-09-17T16:23:26.322Z,5.37
2018-09-17T16:25:57.275Z,5.93
2018-09-17T16:28:28.363Z,5.40
2018-09-17T16:30:59.296Z,5.37
2018-09-17T16:33:30.119Z,5.40
2018-09-17T16:36:01.175Z,5.30
2018-09-17T16:38:32.228Z,5.77
2018-09-17T16:41:03.476Z,5.30
2018-09-17T16:43:34.296Z,5.70
2018-09-17T16:46:05.639Z,5.00
2018-09-17T16:48:36.458Z,5.30
2018-09-17T16:51:08.066Z,5.20
2018-09-17T16:53:39.271Z,5.60
2018-09-17T16:56:10.962Z,5.97
2018-09-17T16:58:41.940Z,5.47
2018-09-17T17:01:13.294Z,16.10
2018-09-17T17:03:44.693Z,19.07
2018-09-17T17:06:15.530Z,19.50
2018-09-17T17:08:46.612Z,6.23
2018-09-17T17:11:17.829Z,6.07
2018-09-17T17:13:48.891Z,6.30
2018-09-17T17:16:19.871Z,5.63
2018-09-17T17:18:51.053Z,6.27
2018-09-17T17:21:21.986Z,5.77
2018-09-17T17:23:53.163Z,5.87
2018-09-17T17:26:24.432Z,5.97
2018-09-17T17:28:56.032Z,5.90
2018-09-17T17:31:27.460Z,5.50
2018-09-17T17:33:59.108Z,6.03
2018-09-17T17:36:31.147Z,5.67
2018-09-17T17:39:02.840Z,6.10
2018-09-17T17:41:34.395Z,5.83
2018-09-17T17:44:05.940Z,6.23
2018-09-17T17:46:37.715Z,5.70
2018-09-17T17:49:09.326Z,5.30
2018-09-17T17:51:42.073Z,5.60
2018-09-17T17:54:14.215Z,5.70
2018-09-17T17:56:46.203Z,6.00
2018-09-17T17:59:17.931Z,6.43
2018-09-17T18:01:49.871Z,5.90
2018-09-17T18:04:24.543Z,6.43
2018-09-17T18:06:56.434Z,5.53
2018-09-17T18:09:30.144Z,6.73
2018-09-17T18:12:02.453Z,6.43
2018-09-17T18:14:34.804Z,6.87
2018-09-17T18:17:07.625Z,6.07
2018-09-17T18:19:40.231Z,6.67
2018-09-17T18:22:13.424Z,6.37
2018-09-17T18:24:46.456Z,6.50
2018-09-17T18:27:18.490Z,6.67
2018-09-17T18:29:51.145Z,6.23
2018-09-17T18:32:23.569Z,6.40
2018-09-17T18:34:59.747Z,6.40
2018-09-17T18:37:33.032Z,6.40
2018-09-17T18:40:06.110Z,6.23
2018-09-17T18:42:46.465Z,6.13
2018-09-17T18:45:20.301Z,6.47
2018-09-17T18:47:54.077Z,6.60
2018-09-17T18:50:29.623Z,6.67
2018-09-17T18:53:03.401Z,6.87
2018-09-17T18:55:35.582Z,6.47
2018-09-17T18:58:08.133Z,7.30
2018-09-17T19:00:40.485Z,6.90
2018-09-17T19:03:16.659Z,6.63
2018-09-17T19:05:50.295Z,8.00
2018-09-17T19:08:24.289Z,6.50
2018-09-17T19:10:57.411Z,6.73
2018-09-17T19:13:33.574Z,7.23
2018-09-17T19:16:07.109Z,8.67
2018-09-17T19:18:40.495Z,8.87
2018-09-17T19:21:13.664Z,8.67
2018-09-17T19:23:52.220Z,7.83
2018-09-17T19:26:26.260Z,8.40
2018-09-17T19:29:05.141Z,9.10
2018-09-17T19:31:39.619Z,8.07
2018-09-17T19:34:13.749Z,8.40
2018-09-17T19:36:52.742Z,7.57
2018-09-17T19:39:40.217Z,7.50
2018-09-17T19:42:13.680Z,7.40
2018-09-17T19:45:48.706Z,8.80
2018-09-17T19:48:21.381Z,8.07
2018-09-17T19:50:58.731Z,6.80
2018-09-17T19:53:30.855Z,7.10
2018-09-17T19:56:03.779Z,7.33
2018-09-17T19:58:42.626Z,8.60
2018-09-17T20:01:15.775Z,8.07
2018-09-17T20:03:51.889Z,8.53
2018-09-17T20:06:27.357Z,8.47
2018-09-17T20:09:00.396Z,8.40
2018-09-17T20:11:33.411Z,7.90
2018-09-17T20:14:05.236Z,7.40
2018-09-17T20:16:37.441Z,7.07
2018-09-17T20:19:10.158Z,7.43
2018-09-17T20:21:41.975Z,7.27
2018-09-17T20:24:14.592Z,7.10
2018-09-17T20:26:46.675Z,8.03
2018-09-17T20:29:18.450Z,7.17
2018-09-17T20:31:49.927Z,7.17
2018-09-17T20:34:28.333Z,7.43
2018-09-17T20:36:59.913Z,6.83
2018-09-17T20:39:31.449Z,7.43
2018-09-17T20:42:03.938Z,7.60
2018-09-17T20:44:36.376Z,7.87
2018-09-17T20:47:10.529Z,8.27
2018-09-17T20:49:43.696Z,8.37
2018-09-17T20:52:15.748Z,8.23
2018-09-17T20:54:47.999Z,8.03
2018-09-17T20:57:19.633Z,7.53
2018-09-17T20:59:51.340Z,8.60
2018-09-17T21:02:23.355Z,7.93
2018-09-17T21:04:54.945Z,7.90
2018-09-17T21:07:26.698Z,8.00
2018-09-17T21:09:58.096Z,7.67
2018-09-17T21:12:29.728Z,7.90
2018-09-17T21:15:01.037Z,7.13
2018-09-17T21:17:32.415Z,7.80
2018-09-17T21:20:03.928Z,7.00
2018-09-17T21:22:35.315Z,7.57
2018-09-17T21:25:06.877Z,7.10
2018-09-17T21:27:38.216Z,8.17
2018-09-17T21:30:10.423Z,8.20
2018-09-17T21:32:41.895Z,8.53
2018-09-17T21:35:13.349Z,8.67
2018-09-17T21:37:44.793Z,7.40
2018-09-17T21:40:16.244Z,7.70
2018-09-17T21:42:48.237Z,8.30
2018-09-17T21:45:19.325Z,7.03
2018-09-17T21:47:50.095Z,7.83
2018-09-17T21:50:20.844Z,7.47
2018-09-17T21:52:51.639Z,7.50
2018-09-17T21:55:22.496Z,7.47
2018-09-17T21:57:53.276Z,7.80
2018-09-17T22:00:24.059Z,8.27
2018-09-17T22:02:55.091Z,7.67
2018-09-17T22:05:25.880Z,7.67
2018-09-17T22:07:56.711Z,7.13
2018-09-17T22:10:27.535Z,8.40
2018-09-17T22:12:58.314Z,8.23
2018-09-17T22:15:29.398Z,8.03
2018-09-17T22:18:00.916Z,7.67
2018-09-17T22:20:31.931Z,7.90
2018-09-17T22:23:02.928Z,7.97
2018-09-17T22:25:34.023Z,7.53
2018-09-17T22:28:05.147Z,8.30
2018-09-17T22:30:36.098Z,7.80
2018-09-17T22:33:07.241Z,8.10
2018-09-17T22:35:37.955Z,7.97
2018-09-17T22:38:08.698Z,7.63
2018-09-17T22:40:39.459Z,7.97
2018-09-17T22:43:10.232Z,7.60
2018-09-17T22:45:41.266Z,7.90
2018-09-17T22:48:12.123Z,8.03
2018-09-17T22:50:43.126Z,8.10
2018-09-17T22:53:13.998Z,7.40
2018-09-17T22:55:44.834Z,7.90
2018-09-17T22:58:15.639Z,7.77
2018-09-17T23:00:46.390Z,8.00
2018-09-17T23:03:17.233Z,8.17
2018-09-17T23:05:48.059Z,8.37
2018-09-17T23:08:18.932Z,8.13
2018-09-17T23:10:49.710Z,8.27
2018-09-17T23:13:20.491Z,8.43
2018-09-17T23:15:51.504Z,9.20
2018-09-17T23:18:22.501Z,9.43
2018-09-17T23:20:53.455Z,9.87
2018-09-17T23:23:24.323Z,8.07
2018-09-17T23:25:55.185Z,8.80
2018-09-17T23:28:26.035Z,8.30
2018-09-17T23:30:56.842Z,7.77
2018-09-17T23:33:27.597Z,7.70
2018-09-17T23:35:58.426Z,8.57
2018-09-17T23:38:29.117Z,7.30
2018-09-17T23:40:59.830Z,8.67
2018-09-17T23:43:30.599Z,8.30
2018-09-17T23:46:01.321Z,7.80
2018-09-17T23:48:32.011Z,8.40
2018-09-17T23:51:02.799Z,8.40
2018-09-17T23:53:33.530Z,8.10
2018-09-17T23:56:04.251Z,8.33
2018-09-17T23:58:34.999Z,8.63
